sensor_id;sensor_type;location;lat;lon;timestamp;P1;durP1;ratioP1;P2;durP2;ratioP2
11608;SDS011;5860;52.018;8.536;2023-04-29T00:01:33;21.23;;;18.20;;
11608;SDS011;5860;52.018;8.536;2023-04-29T00:04:00;21.83;;;18.97;;
11608;SDS011;5860;52.018;8.536;2023-04-29T00:06:28;22.97;;;19.40;;
11608;SDS011;5860;52.018;8.536;2023-04-29T00:08:56;22.87;;;19.43;;
11608;SDS011;5860;52.018;8.536;2023-04-29T00:11:23;26.13;;;19.70;;
11608;SDS011;5860;52.018;8.536;2023-04-29T00:13:52;23.70;;;19.70;;
11608;SDS011;5860;52.018;8.536;2023-04-29T00:16:19;23.07;;;19.23;;
11608;SDS011;5860;52.018;8.536;2023-04-29T00:18:46;24.33;;;20.73;;
11608;SDS011;5860;52.018;8.536;2023-04-29T00:21:13;25.93;;;21.13;;
11608;SDS011;5860;52.018;8.536;2023-04-29T00:23:41;25.73;;;20.93;;
11608;SDS011;5860;52.018;8.536;2023-04-29T00:26:08;28.43;;;21.87;;
11608;SDS011;5860;52.018;8.536;2023-04-29T00:28:34;29.70;;;22.70;;
11608;SDS011;5860;52.018;8.536;2023-04-29T00:31:02;29.37;;;23.43;;
11608;SDS011;5860;52.018;8.536;2023-04-29T00:33:29;28.00;;;22.63;;
11608;SDS011;5860;52.018;8.536;2023-04-29T00:35:56;27.27;;;22.07;;
11608;SDS011;5860;52.018;8.536;2023-04-29T00:38:23;26.40;;;20.80;;
11608;SDS011;5860;52.018;8.536;2023-04-29T00:40:50;28.03;;;22.77;;
11608;SDS011;5860;52.018;8.536;2023-04-29T00:43:17;32.77;;;24.77;;
11608;SDS011;5860;52.018;8.536;2023-04-29T00:45:45;33.63;;;25.23;;
11608;SDS011;5860;52.018;8.536;2023-04-29T00:48:12;31.73;;;24.57;;
11608;SDS011;5860;52.018;8.536;2023-04-29T00:50:40;35.40;;;26.50;;
11608;SDS011;5860;52.018;8.536;2023-04-29T00:53:08;35.20;;;26.67;;
11608;SDS011;5860;52.018;8.536;2023-04-29T00:55:38;38.00;;;28.30;;
11608;SDS011;5860;52.018;8.536;2023-04-29T00:58:06;40.10;;;27.00;;
11608;SDS011;5860;52.018;8.536;2023-04-29T01:00:35;38.67;;;28.83;;
11608;SDS011;5860;52.018;8.536;2023-04-29T01:03:06;40.53;;;28.07;;
11608;SDS011;5860;52.018;8.536;2023-04-29T01:05:34;39.83;;;28.60;;
11608;SDS011;5860;52.018;8.536;2023-04-29T01:08:25;44.77;;;30.83;;
11608;SDS011;5860;52.018;8.536;2023-04-29T01:11:13;43.47;;;28.90;;
11608;SDS011;5860;52.018;8.536;2023-04-29T01:13:47;42.80;;;28.93;;
11608;SDS011;5860;52.018;8.536;2023-04-29T01:16:59;45.93;;;29.87;;
11608;SDS011;5860;52.018;8.536;2023-04-29T01:19:20;44.40;;;29.37;;
11608;SDS011;5860;52.018;8.536;2023-04-29T01:21:52;43.00;;;29.33;;
11608;SDS011;5860;52.018;8.536;2023-04-29T01:24:19;43.37;;;28.30;;
11608;SDS011;5860;52.018;8.536;2023-04-29T01:26:56;44.07;;;28.53;;
11608;SDS011;5860;52.018;8.536;2023-04-29T01:29:39;44.83;;;26.37;;
11608;SDS011;5860;52.018;8.536;2023-04-29T01:32:22;46.23;;;29.33;;
11608;SDS011;5860;52.018;8.536;2023-04-29T01:35:14;43.37;;;28.20;;
11608;SDS011;5860;52.018;8.536;2023-04-29T01:38:06;49.97;;;30.63;;
11608;SDS011;5860;52.018;8.536;2023-04-29T01:40:49;51.30;;;30.53;;
11608;SDS011;5860;52.018;8.536;2023-04-29T01:43:27;52.00;;;29.90;;
11608;SDS011;5860;52.018;8.536;2023-04-29T01:45:58;46.03;;;29.50;;
11608;SDS011;5860;52.018;8.536;2023-04-29T01:48:25;51.00;;;31.10;;
11608;SDS011;5860;52.018;8.536;2023-04-29T01:50:53;47.77;;;30.77;;
11608;SDS011;5860;52.018;8.536;2023-04-29T01:53:20;47.03;;;30.00;;
11608;SDS011;5860;52.018;8.536;2023-04-29T01:55:47;46.07;;;29.37;;
11608;SDS011;5860;52.018;8.536;2023-04-29T01:58:14;51.87;;;31.53;;
11608;SDS011;5860;52.018;8.536;2023-04-29T02:00:41;52.37;;;31.60;;
11608;SDS011;5860;52.018;8.536;2023-04-29T02:03:08;53.17;;;30.83;;
11608;SDS011;5860;52.018;8.536;2023-04-29T02:05:35;53.50;;;31.30;;
11608;SDS011;5860;52.018;8.536;2023-04-29T02:08:02;48.10;;;29.77;;
11608;SDS011;5860;52.018;8.536;2023-04-29T02:10:29;48.03;;;29.07;;
11608;SDS011;5860;52.018;8.536;2023-04-29T02:12:56;51.87;;;31.27;;
11608;SDS011;5860;52.018;8.536;2023-04-29T02:15:26;49.10;;;29.67;;
11608;SDS011;5860;52.018;8.536;2023-04-29T02:17:54;48.03;;;28.03;;
11608;SDS011;5860;52.018;8.536;2023-04-29T02:20:21;47.70;;;27.90;;
11608;SDS011;5860;52.018;8.536;2023-04-29T02:22:48;50.67;;;29.30;;
11608;SDS011;5860;52.018;8.536;2023-04-29T02:25:15;45.10;;;26.93;;
11608;SDS011;5860;52.018;8.536;2023-04-29T02:27:42;44.27;;;26.70;;
11608;SDS011;5860;52.018;8.536;2023-04-29T02:30:09;40.07;;;26.07;;
11608;SDS011;5860;52.018;8.536;2023-04-29T02:32:36;43.23;;;25.90;;
11608;SDS011;5860;52.018;8.536;2023-04-29T02:35:05;41.87;;;24.23;;
11608;SDS011;5860;52.018;8.536;2023-04-29T02:37:33;38.50;;;23.97;;
11608;SDS011;5860;52.018;8.536;2023-04-29T02:40:00;36.87;;;22.83;;
11608;SDS011;5860;52.018;8.536;2023-04-29T02:42:28;39.97;;;25.47;;
11608;SDS011;5860;52.018;8.536;2023-04-29T02:44:56;40.43;;;24.93;;
11608;SDS011;5860;52.018;8.536;2023-04-29T02:47:23;38.67;;;24.43;;
11608;SDS011;5860;52.018;8.536;2023-04-29T02:49:50;44.30;;;27.03;;
11608;SDS011;5860;52.018;8.536;2023-04-29T02:52:17;43.73;;;26.87;;
11608;SDS011;5860;52.018;8.536;2023-04-29T02:54:44;45.93;;;26.20;;
11608;SDS011;5860;52.018;8.536;2023-04-29T02:57:11;45.53;;;26.37;;
11608;SDS011;5860;52.018;8.536;2023-04-29T02:59:39;49.10;;;28.87;;
11608;SDS011;5860;52.018;8.536;2023-04-29T03:02:05;44.53;;;25.77;;
11608;SDS011;5860;52.018;8.536;2023-04-29T03:04:32;48.27;;;28.40;;
11608;SDS011;5860;52.018;8.536;2023-04-29T03:06:59;46.07;;;27.53;;
11608;SDS011;5860;52.018;8.536;2023-04-29T03:09:30;43.23;;;26.50;;
11608;SDS011;5860;52.018;8.536;2023-04-29T03:11:57;47.20;;;27.37;;
11608;SDS011;5860;52.018;8.536;2023-04-29T03:14:24;46.83;;;28.07;;
11608;SDS011;5860;52.018;8.536;2023-04-29T03:16:51;46.60;;;28.10;;
11608;SDS011;5860;52.018;8.536;2023-04-29T03:19:18;45.10;;;27.87;;
11608;SDS011;5860;52.018;8.536;2023-04-29T03:21:45;46.07;;;27.63;;
11608;SDS011;5860;52.018;8.536;2023-04-29T03:24:12;48.03;;;27.63;;
11608;SDS011;5860;52.018;8.536;2023-04-29T03:26:42;43.77;;;25.97;;
11608;SDS011;5860;52.018;8.536;2023-04-29T03:29:09;44.00;;;27.33;;
11608;SDS011;5860;52.018;8.536;2023-04-29T03:31:36;43.23;;;27.17;;
11608;SDS011;5860;52.018;8.536;2023-04-29T03:34:03;37.90;;;23.23;;
11608;SDS011;5860;52.018;8.536;2023-04-29T03:36:29;36.30;;;23.03;;
11608;SDS011;5860;52.018;8.536;2023-04-29T03:38:56;35.03;;;22.17;;
11608;SDS011;5860;52.018;8.536;2023-04-29T03:41:23;31.30;;;20.20;;
11608;SDS011;5860;52.018;8.536;2023-04-29T03:43:50;35.40;;;22.30;;
11608;SDS011;5860;52.018;8.536;2023-04-29T03:46:17;30.43;;;21.40;;
11608;SDS011;5860;52.018;8.536;2023-04-29T03:48:44;30.83;;;20.87;;
11608;SDS011;5860;52.018;8.536;2023-04-29T03:51:11;29.07;;;19.23;;
11608;SDS011;5860;52.018;8.536;2023-04-29T03:53:38;31.77;;;20.53;;
11608;SDS011;5860;52.018;8.536;2023-04-29T03:56:06;28.97;;;18.87;;
11608;SDS011;5860;52.018;8.536;2023-04-29T03:58:33;30.23;;;19.07;;
11608;SDS011;5860;52.018;8.536;2023-04-29T04:01:00;26.47;;;19.23;;
11608;SDS011;5860;52.018;8.536;2023-04-29T04:03:28;26.70;;;19.33;;
11608;SDS011;5860;52.018;8.536;2023-04-29T04:05:56;28.83;;;19.57;;
11608;SDS011;5860;52.018;8.536;2023-04-29T04:08:23;29.20;;;21.20;;
11608;SDS011;5860;52.018;8.536;2023-04-29T04:10:50;29.43;;;21.03;;
11608;SDS011;5860;52.018;8.536;2023-04-29T04:13:17;31.73;;;20.57;;
11608;SDS011;5860;52.018;8.536;2023-04-29T04:15:48;31.10;;;22.73;;
11608;SDS011;5860;52.018;8.536;2023-04-29T04:18:16;36.23;;;23.00;;
11608;SDS011;5860;52.018;8.536;2023-04-29T04:20:43;39.27;;;25.17;;
11608;SDS011;5860;52.018;8.536;2023-04-29T04:23:10;40.93;;;27.00;;
11608;SDS011;5860;52.018;8.536;2023-04-29T04:25:38;43.23;;;28.73;;
11608;SDS011;5860;52.018;8.536;2023-04-29T04:28:13;48.80;;;28.70;;
11608;SDS011;5860;52.018;8.536;2023-04-29T04:30:40;50.37;;;31.30;;
11608;SDS011;5860;52.018;8.536;2023-04-29T04:33:08;52.30;;;32.77;;
11608;SDS011;5860;52.018;8.536;2023-04-29T04:35:36;54.13;;;33.70;;
11608;SDS011;5860;52.018;8.536;2023-04-29T04:38:03;54.23;;;32.93;;
11608;SDS011;5860;52.018;8.536;2023-04-29T04:40:30;56.43;;;35.20;;
11608;SDS011;5860;52.018;8.536;2023-04-29T04:42:58;57.23;;;35.67;;
11608;SDS011;5860;52.018;8.536;2023-04-29T04:45:26;62.23;;;35.53;;
11608;SDS011;5860;52.018;8.536;2023-04-29T04:47:55;58.70;;;37.63;;
11608;SDS011;5860;52.018;8.536;2023-04-29T04:50:22;62.73;;;35.97;;
11608;SDS011;5860;52.018;8.536;2023-04-29T04:52:49;59.33;;;36.33;;
11608;SDS011;5860;52.018;8.536;2023-04-29T04:55:16;60.57;;;37.83;;
11608;SDS011;5860;52.018;8.536;2023-04-29T04:57:43;60.30;;;36.30;;
11608;SDS011;5860;52.018;8.536;2023-04-29T05:00:10;57.97;;;35.03;;
11608;SDS011;5860;52.018;8.536;2023-04-29T05:02:38;57.03;;;35.23;;
11608;SDS011;5860;52.018;8.536;2023-04-29T05:05:05;64.37;;;35.27;;
11608;SDS011;5860;52.018;8.536;2023-04-29T05:07:32;60.43;;;34.87;;
11608;SDS011;5860;52.018;8.536;2023-04-29T05:10:02;58.80;;;34.93;;
11608;SDS011;5860;52.018;8.536;2023-04-29T05:12:29;56.83;;;34.47;;
11608;SDS011;5860;52.018;8.536;2023-04-29T05:14:57;56.37;;;34.27;;
11608;SDS011;5860;52.018;8.536;2023-04-29T05:17:26;57.30;;;33.40;;
11608;SDS011;5860;52.018;8.536;2023-04-29T05:19:53;59.23;;;33.87;;
11608;SDS011;5860;52.018;8.536;2023-04-29T05:22:20;58.60;;;32.33;;
11608;SDS011;5860;52.018;8.536;2023-04-29T05:24:47;56.30;;;32.73;;
11608;SDS011;5860;52.018;8.536;2023-04-29T05:27:14;47.73;;;31.33;;
11608;SDS011;5860;52.018;8.536;2023-04-29T05:29:41;46.13;;;29.47;;
11608;SDS011;5860;52.018;8.536;2023-04-29T05:32:09;52.97;;;30.80;;
11608;SDS011;5860;52.018;8.536;2023-04-29T05:34:36;48.57;;;28.97;;
11608;SDS011;5860;52.018;8.536;2023-04-29T05:37:05;51.90;;;31.00;;
11608;SDS011;5860;52.018;8.536;2023-04-29T05:39:32;52.47;;;30.90;;
11608;SDS011;5860;52.018;8.536;2023-04-29T05:41:59;41.70;;;28.67;;
11608;SDS011;5860;52.018;8.536;2023-04-29T05:44:27;41.57;;;28.97;;
11608;SDS011;5860;52.018;8.536;2023-04-29T05:46:54;46.53;;;28.67;;
11608;SDS011;5860;52.018;8.536;2023-04-29T05:49:21;46.03;;;30.03;;
11608;SDS011;5860;52.018;8.536;2023-04-29T05:51:48;39.93;;;26.60;;
11608;SDS011;5860;52.018;8.536;2023-04-29T05:54:15;38.43;;;26.60;;
11608;SDS011;5860;52.018;8.536;2023-04-29T05:56:42;40.43;;;27.20;;
11608;SDS011;5860;52.018;8.536;2023-04-29T05:59:09;40.83;;;27.53;;
11608;SDS011;5860;52.018;8.536;2023-04-29T06:01:36;40.13;;;28.57;;
11608;SDS011;5860;52.018;8.536;2023-04-29T06:04:04;40.20;;;27.97;;
11608;SDS011;5860;52.018;8.536;2023-04-29T06:06:31;45.03;;;28.63;;
11608;SDS011;5860;52.018;8.536;2023-04-29T06:08:59;43.63;;;27.97;;
11608;SDS011;5860;52.018;8.536;2023-04-29T06:11:26;39.17;;;27.73;;
11608;SDS011;5860;52.018;8.536;2023-04-29T06:13:53;39.10;;;27.37;;
11608;SDS011;5860;52.018;8.536;2023-04-29T06:16:20;42.40;;;28.00;;
11608;SDS011;5860;52.018;8.536;2023-04-29T06:18:47;40.60;;;28.70;;
11608;SDS011;5860;52.018;8.536;2023-04-29T06:21:14;42.03;;;29.07;;
11608;SDS011;5860;52.018;8.536;2023-04-29T06:23:41;38.73;;;27.20;;
11608;SDS011;5860;52.018;8.536;2023-04-29T06:26:08;39.70;;;28.83;;
11608;SDS011;5860;52.018;8.536;2023-04-29T06:28:35;39.63;;;28.37;;
11608;SDS011;5860;52.018;8.536;2023-04-29T06:31:02;39.00;;;28.37;;
11608;SDS011;5860;52.018;8.536;2023-04-29T06:33:29;40.27;;;29.27;;
11608;SDS011;5860;52.018;8.536;2023-04-29T06:35:59;39.00;;;28.27;;
11608;SDS011;5860;52.018;8.536;2023-04-29T06:38:26;37.50;;;28.03;;
11608;SDS011;5860;52.018;8.536;2023-04-29T06:40:52;36.67;;;28.63;;
11608;SDS011;5860;52.018;8.536;2023-04-29T06:43:20;38.30;;;28.00;;
11608;SDS011;5860;52.018;8.536;2023-04-29T06:45:47;39.97;;;30.80;;
11608;SDS011;5860;52.018;8.536;2023-04-29T06:48:14;41.40;;;29.83;;
11608;SDS011;5860;52.018;8.536;2023-04-29T06:50:48;35.57;;;28.43;;
11608;SDS011;5860;52.018;8.536;2023-04-29T06:53:20;38.30;;;29.53;;
11608;SDS011;5860;52.018;8.536;2023-04-29T06:55:47;39.23;;;29.27;;
11608;SDS011;5860;52.018;8.536;2023-04-29T06:58:15;38.57;;;28.10;;
11608;SDS011;5860;52.018;8.536;2023-04-29T07:00:43;37.87;;;29.07;;
11608;SDS011;5860;52.018;8.536;2023-04-29T07:03:11;36.97;;;27.87;;
11608;SDS011;5860;52.018;8.536;2023-04-29T07:05:39;37.83;;;29.23;;
11608;SDS011;5860;52.018;8.536;2023-04-29T07:08:07;37.60;;;29.00;;
11608;SDS011;5860;52.018;8.536;2023-04-29T07:10:35;35.80;;;28.03;;
11608;SDS011;5860;52.018;8.536;2023-04-29T07:13:02;34.60;;;27.43;;
11608;SDS011;5860;52.018;8.536;2023-04-29T07:15:32;36.03;;;29.33;;
11608;SDS011;5860;52.018;8.536;2023-04-29T07:18:00;34.00;;;25.37;;
11608;SDS011;5860;52.018;8.536;2023-04-29T07:20:28;37.23;;;29.27;;
11608;SDS011;5860;52.018;8.536;2023-04-29T07:22:55;35.90;;;27.20;;
11608;SDS011;5860;52.018;8.536;2023-04-29T07:25:23;34.77;;;25.77;;
11608;SDS011;5860;52.018;8.536;2023-04-29T07:27:52;31.60;;;25.90;;
11608;SDS011;5860;52.018;8.536;2023-04-29T07:30:19;34.47;;;26.17;;
11608;SDS011;5860;52.018;8.536;2023-04-29T07:32:46;32.77;;;26.03;;
11608;SDS011;5860;52.018;8.536;2023-04-29T07:35:13;33.40;;;24.83;;
11608;SDS011;5860;52.018;8.536;2023-04-29T07:37:40;32.33;;;26.57;;
11608;SDS011;5860;52.018;8.536;2023-04-29T07:40:09;31.67;;;25.87;;
11608;SDS011;5860;52.018;8.536;2023-04-29T07:42:36;30.20;;;24.80;;
11608;SDS011;5860;52.018;8.536;2023-04-29T07:45:03;32.90;;;26.07;;
11608;SDS011;5860;52.018;8.536;2023-04-29T07:47:31;31.47;;;24.67;;
11608;SDS011;5860;52.018;8.536;2023-04-29T07:49:58;33.63;;;25.77;;
11608;SDS011;5860;52.018;8.536;2023-04-29T07:52:25;31.03;;;24.53;;
11608;SDS011;5860;52.018;8.536;2023-04-29T07:54:52;27.20;;;22.77;;
11608;SDS011;5860;52.018;8.536;2023-04-29T07:57:22;29.67;;;24.00;;
11608;SDS011;5860;52.018;8.536;2023-04-29T07:59:52;26.70;;;23.27;;
11608;SDS011;5860;52.018;8.536;2023-04-29T08:02:20;26.97;;;23.23;;
11608;SDS011;5860;52.018;8.536;2023-04-29T08:04:47;29.93;;;24.13;;
11608;SDS011;5860;52.018;8.536;2023-04-29T08:07:18;30.47;;;23.63;;
11608;SDS011;5860;52.018;8.536;2023-04-29T08:09:45;28.03;;;23.33;;
11608;SDS011;5860;52.018;8.536;2023-04-29T08:12:12;28.83;;;24.20;;
11608;SDS011;5860;52.018;8.536;2023-04-29T08:14:39;26.60;;;22.93;;
11608;SDS011;5860;52.018;8.536;2023-04-29T08:17:06;27.00;;;22.43;;
11608;SDS011;5860;52.018;8.536;2023-04-29T08:19:33;26.20;;;22.33;;
11608;SDS011;5860;52.018;8.536;2023-04-29T08:22:01;27.43;;;22.90;;
11608;SDS011;5860;52.018;8.536;2023-04-29T08:24:29;25.37;;;22.67;;
11608;SDS011;5860;52.018;8.536;2023-04-29T08:26:58;27.00;;;22.73;;
11608;SDS011;5860;52.018;8.536;2023-04-29T08:29:25;26.53;;;23.53;;
11608;SDS011;5860;52.018;8.536;2023-04-29T08:31:53;28.03;;;23.07;;
11608;SDS011;5860;52.018;8.536;2023-04-29T08:34:20;29.57;;;24.50;;
11608;SDS011;5860;52.018;8.536;2023-04-29T08:36:47;28.83;;;24.53;;
11608;SDS011;5860;52.018;8.536;2023-04-29T08:39:14;28.60;;;25.50;;
11608;SDS011;5860;52.018;8.536;2023-04-29T08:41:41;30.83;;;24.70;;
11608;SDS011;5860;52.018;8.536;2023-04-29T08:44:11;29.00;;;24.97;;
11608;SDS011;5860;52.018;8.536;2023-04-29T08:46:38;27.97;;;24.97;;
11608;SDS011;5860;52.018;8.536;2023-04-29T08:49:05;28.10;;;23.77;;
11608;SDS011;5860;52.018;8.536;2023-04-29T08:51:32;26.27;;;21.97;;
11608;SDS011;5860;52.018;8.536;2023-04-29T08:54:00;25.17;;;22.10;;
11608;SDS011;5860;52.018;8.536;2023-04-29T08:56:27;25.43;;;22.73;;
11608;SDS011;5860;52.018;8.536;2023-04-29T08:58:56;24.47;;;21.93;;
11608;SDS011;5860;52.018;8.536;2023-04-29T09:01:28;25.17;;;20.37;;
11608;SDS011;5860;52.018;8.536;2023-04-29T09:03:59;25.53;;;20.97;;
11608;SDS011;5860;52.018;8.536;2023-04-29T09:06:39;23.90;;;19.80;;
11608;SDS011;5860;52.018;8.536;2023-04-29T09:09:06;25.37;;;21.80;;
11608;SDS011;5860;52.018;8.536;2023-04-29T09:11:33;22.67;;;20.27;;
11608;SDS011;5860;52.018;8.536;2023-04-29T09:14:02;24.60;;;20.80;;
11608;SDS011;5860;52.018;8.536;2023-04-29T09:16:33;21.83;;;19.40;;
11608;SDS011;5860;52.018;8.536;2023-04-29T09:19:02;22.00;;;17.80;;
11608;SDS011;5860;52.018;8.536;2023-04-29T09:21:29;21.63;;;18.17;;
11608;SDS011;5860;52.018;8.536;2023-04-29T09:24:00;20.93;;;18.17;;
11608;SDS011;5860;52.018;8.536;2023-04-29T09:26:40;21.00;;;18.23;;
11608;SDS011;5860;52.018;8.536;2023-04-29T09:29:09;17.57;;;15.67;;
11608;SDS011;5860;52.018;8.536;2023-04-29T09:31:39;17.40;;;15.70;;
11608;SDS011;5860;52.018;8.536;2023-04-29T09:34:07;18.83;;;16.07;;
11608;SDS011;5860;52.018;8.536;2023-04-29T09:39:04;18.33;;;16.43;;
11608;SDS011;5860;52.018;8.536;2023-04-29T09:41:40;17.43;;;15.33;;
11608;SDS011;5860;52.018;8.536;2023-04-29T09:44:09;17.67;;;15.87;;
11608;SDS011;5860;52.018;8.536;2023-04-29T09:46:36;17.60;;;15.70;;
11608;SDS011;5860;52.018;8.536;2023-04-29T09:49:05;15.77;;;14.10;;
11608;SDS011;5860;52.018;8.536;2023-04-29T09:51:52;17.27;;;15.37;;
11608;SDS011;5860;52.018;8.536;2023-04-29T09:54:19;16.60;;;14.80;;
11608;SDS011;5860;52.018;8.536;2023-04-29T09:56:51;17.73;;;14.87;;
11608;SDS011;5860;52.018;8.536;2023-04-29T09:59:19;17.73;;;15.87;;
11608;SDS011;5860;52.018;8.536;2023-04-29T10:01:50;14.37;;;12.50;;
11608;SDS011;5860;52.018;8.536;2023-04-29T10:04:19;16.30;;;13.30;;
11608;SDS011;5860;52.018;8.536;2023-04-29T10:06:50;16.87;;;13.63;;
11608;SDS011;5860;52.018;8.536;2023-04-29T10:09:19;17.10;;;14.27;;
11608;SDS011;5860;52.018;8.536;2023-04-29T10:11:48;14.93;;;13.37;;
11608;SDS011;5860;52.018;8.536;2023-04-29T10:14:17;14.97;;;13.23;;
11608;SDS011;5860;52.018;8.536;2023-04-29T10:16:46;15.83;;;14.07;;
11608;SDS011;5860;52.018;8.536;2023-04-29T10:19:55;16.07;;;13.37;;
11608;SDS011;5860;52.018;8.536;2023-04-29T10:25:17;16.27;;;13.80;;
11608;SDS011;5860;52.018;8.536;2023-04-29T10:27:45;14.33;;;11.67;;
11608;SDS011;5860;52.018;8.536;2023-04-29T10:30:15;13.67;;;12.27;;
11608;SDS011;5860;52.018;8.536;2023-04-29T10:32:44;15.27;;;12.33;;
11608;SDS011;5860;52.018;8.536;2023-04-29T10:35:17;14.17;;;11.83;;
11608;SDS011;5860;52.018;8.536;2023-04-29T10:37:47;13.33;;;11.93;;
11608;SDS011;5860;52.018;8.536;2023-04-29T10:40:21;15.00;;;13.03;;
11608;SDS011;5860;52.018;8.536;2023-04-29T10:42:55;15.10;;;13.60;;
11608;SDS011;5860;52.018;8.536;2023-04-29T10:50:32;16.37;;;13.37;;
11608;SDS011;5860;52.018;8.536;2023-04-29T10:53:04;15.23;;;12.93;;
11608;SDS011;5860;52.018;8.536;2023-04-29T10:55:34;16.47;;;13.20;;
11608;SDS011;5860;52.018;8.536;2023-04-29T10:58:03;16.10;;;13.30;;
11608;SDS011;5860;52.018;8.536;2023-04-29T11:00:33;16.07;;;13.53;;
11608;SDS011;5860;52.018;8.536;2023-04-29T11:03:04;17.07;;;13.50;;
11608;SDS011;5860;52.018;8.536;2023-04-29T11:05:32;18.33;;;14.17;;
11608;SDS011;5860;52.018;8.536;2023-04-29T11:10:59;15.50;;;13.90;;
11608;SDS011;5860;52.018;8.536;2023-04-29T11:13:30;17.63;;;13.70;;
11608;SDS011;5860;52.018;8.536;2023-04-29T11:16:05;15.47;;;13.10;;
11608;SDS011;5860;52.018;8.536;2023-04-29T11:18:34;15.97;;;13.30;;
11608;SDS011;5860;52.018;8.536;2023-04-29T11:23:33;12.97;;;11.23;;
11608;SDS011;5860;52.018;8.536;2023-04-29T11:26:04;13.10;;;10.97;;
11608;SDS011;5860;52.018;8.536;2023-04-29T11:28:31;11.53;;;10.33;;
11608;SDS011;5860;52.018;8.536;2023-04-29T11:30:59;14.67;;;12.07;;
11608;SDS011;5860;52.018;8.536;2023-04-29T11:33:30;15.50;;;12.27;;
11608;SDS011;5860;52.018;8.536;2023-04-29T11:35:58;12.87;;;11.67;;
11608;SDS011;5860;52.018;8.536;2023-04-29T11:38:29;13.97;;;10.60;;
11608;SDS011;5860;52.018;8.536;2023-04-29T11:40:57;13.80;;;11.47;;
11608;SDS011;5860;52.018;8.536;2023-04-29T11:43:25;14.43;;;11.67;;
11608;SDS011;5860;52.018;8.536;2023-04-29T11:45:52;16.60;;;12.20;;
11608;SDS011;5860;52.018;8.536;2023-04-29T11:48:20;13.80;;;12.33;;
11608;SDS011;5860;52.018;8.536;2023-04-29T11:50:49;14.73;;;11.57;;
11608;SDS011;5860;52.018;8.536;2023-04-29T11:53:19;14.63;;;12.43;;
11608;SDS011;5860;52.018;8.536;2023-04-29T11:55:47;16.33;;;12.53;;
11608;SDS011;5860;52.018;8.536;2023-04-29T11:58:14;13.77;;;11.97;;
11608;SDS011;5860;52.018;8.536;2023-04-29T12:00:41;13.63;;;11.47;;
11608;SDS011;5860;52.018;8.536;2023-04-29T12:03:13;12.30;;;11.00;;
11608;SDS011;5860;52.018;8.536;2023-04-29T12:05:46;13.70;;;10.63;;
11608;SDS011;5860;52.018;8.536;2023-04-29T12:08:14;12.70;;;10.77;;
11608;SDS011;5860;52.018;8.536;2023-04-29T12:10:49;12.43;;;10.33;;
11608;SDS011;5860;52.018;8.536;2023-04-29T12:13:17;13.40;;;10.70;;
11608;SDS011;5860;52.018;8.536;2023-04-29T12:15:45;12.20;;;10.00;;
11608;SDS011;5860;52.018;8.536;2023-04-29T12:18:14;14.43;;;11.77;;
11608;SDS011;5860;52.018;8.536;2023-04-29T12:20:43;14.00;;;10.50;;
11608;SDS011;5860;52.018;8.536;2023-04-29T12:25:38;11.87;;;10.30;;
11608;SDS011;5860;52.018;8.536;2023-04-29T12:28:12;11.97;;;10.77;;
11608;SDS011;5860;52.018;8.536;2023-04-29T12:30:40;12.17;;;10.23;;
11608;SDS011;5860;52.018;8.536;2023-04-29T12:33:09;12.27;;;10.37;;
11608;SDS011;5860;52.018;8.536;2023-04-29T12:35:36;13.17;;;10.47;;
11608;SDS011;5860;52.018;8.536;2023-04-29T12:38:03;10.87;;;9.73;;
11608;SDS011;5860;52.018;8.536;2023-04-29T12:40:30;12.13;;;9.73;;
11608;SDS011;5860;52.018;8.536;2023-04-29T12:43:05;10.67;;;9.20;;
11608;SDS011;5860;52.018;8.536;2023-04-29T12:45:32;13.03;;;9.63;;
11608;SDS011;5860;52.018;8.536;2023-04-29T12:48:00;9.77;;;8.33;;
11608;SDS011;5860;52.018;8.536;2023-04-29T12:50:30;9.73;;;8.33;;
11608;SDS011;5860;52.018;8.536;2023-04-29T12:53:01;10.40;;;9.30;;
11608;SDS011;5860;52.018;8.536;2023-04-29T12:55:30;10.97;;;8.73;;
11608;SDS011;5860;52.018;8.536;2023-04-29T12:58:00;11.47;;;9.20;;
11608;SDS011;5860;52.018;8.536;2023-04-29T13:00:31;13.67;;;9.57;;
11608;SDS011;5860;52.018;8.536;2023-04-29T13:03:00;11.93;;;9.00;;
11608;SDS011;5860;52.018;8.536;2023-04-29T13:05:27;10.77;;;8.97;;
11608;SDS011;5860;52.018;8.536;2023-04-29T13:07:55;12.63;;;9.83;;
11608;SDS011;5860;52.018;8.536;2023-04-29T13:10:22;11.67;;;9.77;;
11608;SDS011;5860;52.018;8.536;2023-04-29T13:12:49;10.73;;;8.93;;
11608;SDS011;5860;52.018;8.536;2023-04-29T13:15:16;14.43;;;9.67;;
11608;SDS011;5860;52.018;8.536;2023-04-29T13:17:43;11.80;;;9.33;;
11608;SDS011;5860;52.018;8.536;2023-04-29T13:20:11;13.33;;;9.47;;
11608;SDS011;5860;52.018;8.536;2023-04-29T13:22:38;13.97;;;9.93;;
11608;SDS011;5860;52.018;8.536;2023-04-29T13:25:05;13.27;;;9.87;;
11608;SDS011;5860;52.018;8.536;2023-04-29T13:27:32;11.10;;;9.43;;
11608;SDS011;5860;52.018;8.536;2023-04-29T13:30:00;15.63;;;9.83;;
11608;SDS011;5860;52.018;8.536;2023-04-29T13:32:27;13.73;;;9.80;;
11608;SDS011;5860;52.018;8.536;2023-04-29T13:35:10;11.00;;;9.23;;
11608;SDS011;5860;52.018;8.536;2023-04-29T13:37:37;12.30;;;9.27;;
11608;SDS011;5860;52.018;8.536;2023-04-29T13:40:04;14.00;;;9.70;;
11608;SDS011;5860;52.018;8.536;2023-04-29T13:42:33;15.20;;;8.73;;
11608;SDS011;5860;52.018;8.536;2023-04-29T13:45:12;11.90;;;8.40;;
11608;SDS011;5860;52.018;8.536;2023-04-29T13:47:41;10.27;;;8.47;;
11608;SDS011;5860;52.018;8.536;2023-04-29T13:50:29;10.63;;;8.27;;
11608;SDS011;5860;52.018;8.536;2023-04-29T13:52:59;11.53;;;8.63;;
11608;SDS011;5860;52.018;8.536;2023-04-29T13:55:46;15.37;;;9.30;;
11608;SDS011;5860;52.018;8.536;2023-04-29T13:58:16;12.03;;;9.73;;
11608;SDS011;5860;52.018;8.536;2023-04-29T14:00:46;10.80;;;9.17;;
11608;SDS011;5860;52.018;8.536;2023-04-29T14:03:17;10.70;;;9.47;;
11608;SDS011;5860;52.018;8.536;2023-04-29T14:05:44;10.73;;;8.17;;
11608;SDS011;5860;52.018;8.536;2023-04-29T14:08:11;9.67;;;7.73;;
11608;SDS011;5860;52.018;8.536;2023-04-29T14:10:39;10.33;;;8.57;;
11608;SDS011;5860;52.018;8.536;2023-04-29T14:13:06;11.90;;;9.53;;
11608;SDS011;5860;52.018;8.536;2023-04-29T14:15:33;9.50;;;6.87;;
11608;SDS011;5860;52.018;8.536;2023-04-29T14:18:00;11.20;;;8.03;;
11608;SDS011;5860;52.018;8.536;2023-04-29T14:20:28;11.93;;;8.50;;
11608;SDS011;5860;52.018;8.536;2023-04-29T14:22:55;12.40;;;9.10;;
11608;SDS011;5860;52.018;8.536;2023-04-29T14:25:22;9.40;;;7.40;;
11608;SDS011;5860;52.018;8.536;2023-04-29T14:27:52;9.90;;;7.17;;
11608;SDS011;5860;52.018;8.536;2023-04-29T14:30:19;8.73;;;7.87;;
11608;SDS011;5860;52.018;8.536;2023-04-29T14:32:46;8.83;;;6.53;;
11608;SDS011;5860;52.018;8.536;2023-04-29T14:35:14;10.83;;;8.33;;
11608;SDS011;5860;52.018;8.536;2023-04-29T14:37:41;12.70;;;8.43;;
11608;SDS011;5860;52.018;8.536;2023-04-29T14:40:08;11.43;;;8.43;;
11608;SDS011;5860;52.018;8.536;2023-04-29T14:42:35;13.03;;;8.23;;
11608;SDS011;5860;52.018;8.536;2023-04-29T14:45:02;11.37;;;8.80;;
11608;SDS011;5860;52.018;8.536;2023-04-29T14:47:29;9.27;;;6.73;;
11608;SDS011;5860;52.018;8.536;2023-04-29T14:49:56;10.73;;;7.10;;
11608;SDS011;5860;52.018;8.536;2023-04-29T14:52:23;10.83;;;6.77;;
11608;SDS011;5860;52.018;8.536;2023-04-29T14:54:50;11.17;;;6.50;;
11608;SDS011;5860;52.018;8.536;2023-04-29T14:57:18;7.20;;;6.33;;
11608;SDS011;5860;52.018;8.536;2023-04-29T14:59:45;10.90;;;6.37;;
11608;SDS011;5860;52.018;8.536;2023-04-29T15:02:12;11.13;;;6.40;;
11608;SDS011;5860;52.018;8.536;2023-04-29T15:04:39;9.60;;;5.90;;
11608;SDS011;5860;52.018;8.536;2023-04-29T15:07:14;9.10;;;7.23;;